sensor_id;sensor_type;location;lat;lon;timestamp;P1;durP1;ratioP1;P2;durP2;ratioP2
65759;SDS011;52496;51.082;5.066;2022-10-16T00:00:05;8.05;;;2.63;;
65759;SDS011;52496;51.082;5.066;2022-10-16T00:02:36;5.95;;;2.70;;
65759;SDS011;52496;51.082;5.066;2022-10-16T00:05:07;5.45;;;2.40;;
65759;SDS011;52496;51.082;5.066;2022-10-16T00:07:37;7.68;;;2.78;;
65759;SDS011;52496;51.082;5.066;2022-10-16T00:10:08;4.63;;;2.42;;
65759;SDS011;52496;51.082;5.066;2022-10-16T00:12:39;4.80;;;2.20;;
65759;SDS011;52496;51.082;5.066;2022-10-16T00:15:09;6.03;;;2.53;;
65759;SDS011;52496;51.082;5.066;2022-10-16T00:17:40;5.40;;;2.53;;
65759;SDS011;52496;51.082;5.066;2022-10-16T00:20:10;9.45;;;2.40;;
65759;SDS011;52496;51.082;5.066;2022-10-16T00:22:41;4.05;;;2.30;;
65759;SDS011;52496;51.082;5.066;2022-10-16T00:25:11;9.95;;;2.78;;
65759;SDS011;52496;51.082;5.066;2022-10-16T00:27:42;12.52;;;3.45;;
65759;SDS011;52496;51.082;5.066;2022-10-16T00:30:13;6.85;;;2.50;;
65759;SDS011;52496;51.082;5.066;2022-10-16T00:32:43;6.43;;;2.58;;
65759;SDS011;52496;51.082;5.066;2022-10-16T00:35:14;5.85;;;2.10;;
65759;SDS011;52496;51.082;5.066;2022-10-16T00:37:44;6.88;;;2.65;;
65759;SDS011;52496;51.082;5.066;2022-10-16T00:40:15;6.25;;;2.20;;
65759;SDS011;52496;51.082;5.066;2022-10-16T00:42:46;4.75;;;2.20;;
65759;SDS011;52496;51.082;5.066;2022-10-16T00:45:16;7.95;;;1.98;;
65759;SDS011;52496;51.082;5.066;2022-10-16T00:47:47;4.07;;;2.22;;
65759;SDS011;52496;51.082;5.066;2022-10-16T00:53:02;7.72;;;2.10;;
65759;SDS011;52496;51.082;5.066;2022-10-16T00:55:33;4.80;;;2.20;;
65759;SDS011;52496;51.082;5.066;2022-10-16T00:58:03;5.60;;;2.10;;
65759;SDS011;52496;51.082;5.066;2022-10-16T01:00:34;4.20;;;2.08;;
65759;SDS011;52496;51.082;5.066;2022-10-16T01:03:21;5.18;;;2.50;;
65759;SDS011;52496;51.082;5.066;2022-10-16T01:06:06;5.57;;;2.22;;
65759;SDS011;52496;51.082;5.066;2022-10-16T01:12:36;4.13;;;2.10;;
65759;SDS011;52496;51.082;5.066;2022-10-16T01:14:54;4.95;;;2.38;;
65759;SDS011;52496;51.082;5.066;2022-10-16T01:30:04;4.20;;;2.05;;
65759;SDS011;52496;51.082;5.066;2022-10-16T01:35:26;3.35;;;1.80;;
65759;SDS011;52496;51.082;5.066;2022-10-16T01:38:10;4.60;;;1.92;;
65759;SDS011;52496;51.082;5.066;2022-10-16T01:40:58;8.30;;;2.50;;
65759;SDS011;52496;51.082;5.066;2022-10-16T01:43:35;4.35;;;2.22;;
65759;SDS011;52496;51.082;5.066;2022-10-16T01:46:10;7.75;;;2.28;;
65759;SDS011;52496;51.082;5.066;2022-10-16T01:48:44;3.63;;;1.90;;
65759;SDS011;52496;51.082;5.066;2022-10-16T01:51:16;5.38;;;2.30;;
65759;SDS011;52496;51.082;5.066;2022-10-16T01:53:53;4.13;;;2.10;;
65759;SDS011;52496;51.082;5.066;2022-10-16T01:56:25;4.60;;;1.95;;
65759;SDS011;52496;51.082;5.066;2022-10-16T01:59:01;3.78;;;2.25;;
65759;SDS011;52496;51.082;5.066;2022-10-16T02:01:40;3.78;;;1.90;;
65759;SDS011;52496;51.082;5.066;2022-10-16T02:04:18;5.47;;;1.98;;
65759;SDS011;52496;51.082;5.066;2022-10-16T02:06:54;3.55;;;1.88;;
65759;SDS011;52496;51.082;5.066;2022-10-16T02:09:25;6.25;;;2.38;;
65759;SDS011;52496;51.082;5.066;2022-10-16T02:11:56;7.22;;;2.00;;
65759;SDS011;52496;51.082;5.066;2022-10-16T02:14:32;5.43;;;1.90;;
65759;SDS011;52496;51.082;5.066;2022-10-16T02:17:09;4.45;;;2.17;;
65759;SDS011;52496;51.082;5.066;2022-10-16T02:19:41;5.50;;;2.33;;
65759;SDS011;52496;51.082;5.066;2022-10-16T02:22:19;9.43;;;2.60;;
65759;SDS011;52496;51.082;5.066;2022-10-16T02:33:00;4.38;;;1.95;;
65759;SDS011;52496;51.082;5.066;2022-10-16T02:35:33;4.40;;;2.10;;
65759;SDS011;52496;51.082;5.066;2022-10-16T02:38:04;5.30;;;2.03;;
65759;SDS011;52496;51.082;5.066;2022-10-16T02:40:36;3.95;;;1.92;;
65759;SDS011;52496;51.082;5.066;2022-10-16T02:43:07;4.82;;;2.40;;
65759;SDS011;52496;51.082;5.066;2022-10-16T02:45:39;10.50;;;2.75;;
65759;SDS011;52496;51.082;5.066;2022-10-16T02:48:09;8.77;;;2.67;;
65759;SDS011;52496;51.082;5.066;2022-10-16T02:50:40;6.28;;;2.90;;
65759;SDS011;52496;51.082;5.066;2022-10-16T02:53:10;6.18;;;2.50;;
65759;SDS011;52496;51.082;5.066;2022-10-16T02:55:41;4.95;;;2.30;;
65759;SDS011;52496;51.082;5.066;2022-10-16T02:58:11;5.15;;;2.00;;
65759;SDS011;52496;51.082;5.066;2022-10-16T03:00:42;10.05;;;2.78;;
65759;SDS011;52496;51.082;5.066;2022-10-16T03:03:12;7.80;;;2.65;;
65759;SDS011;52496;51.082;5.066;2022-10-16T03:05:43;6.25;;;2.25;;
65759;SDS011;52496;51.082;5.066;2022-10-16T03:08:15;6.75;;;2.53;;
65759;SDS011;52496;51.082;5.066;2022-10-16T03:10:46;4.72;;;2.40;;
65759;SDS011;52496;51.082;5.066;2022-10-16T03:13:16;5.55;;;2.10;;
65759;SDS011;52496;51.082;5.066;2022-10-16T03:15:47;6.20;;;2.40;;
65759;SDS011;52496;51.082;5.066;2022-10-16T03:18:18;5.28;;;2.53;;
65759;SDS011;52496;51.082;5.066;2022-10-16T03:20:49;7.15;;;2.45;;
65759;SDS011;52496;51.082;5.066;2022-10-16T03:23:19;6.15;;;2.63;;
65759;SDS011;52496;51.082;5.066;2022-10-16T03:25:50;6.47;;;2.55;;
65759;SDS011;52496;51.082;5.066;2022-10-16T03:28:20;9.38;;;2.88;;
65759;SDS011;52496;51.082;5.066;2022-10-16T03:30:51;6.40;;;2.92;;
65759;SDS011;52496;51.082;5.066;2022-10-16T03:33:21;5.72;;;2.80;;
65759;SDS011;52496;51.082;5.066;2022-10-16T03:35:54;6.65;;;2.70;;
65759;SDS011;52496;51.082;5.066;2022-10-16T03:38:25;8.50;;;3.08;;
65759;SDS011;52496;51.082;5.066;2022-10-16T03:40:55;7.93;;;2.90;;
65759;SDS011;52496;51.082;5.066;2022-10-16T03:43:26;7.20;;;2.75;;
65759;SDS011;52496;51.082;5.066;2022-10-16T03:45:56;6.60;;;2.70;;
65759;SDS011;52496;51.082;5.066;2022-10-16T03:48:27;11.65;;;3.05;;
65759;SDS011;52496;51.082;5.066;2022-10-16T03:50:58;6.13;;;2.78;;
65759;SDS011;52496;51.082;5.066;2022-10-16T03:53:28;5.82;;;2.55;;
65759;SDS011;52496;51.082;5.066;2022-10-16T03:55:59;7.75;;;2.97;;
65759;SDS011;52496;51.082;5.066;2022-10-16T03:58:30;8.43;;;2.90;;
65759;SDS011;52496;51.082;5.066;2022-10-16T04:01:00;10.07;;;3.00;;
65759;SDS011;52496;51.082;5.066;2022-10-16T04:03:31;6.82;;;2.80;;
65759;SDS011;52496;51.082;5.066;2022-10-16T04:06:02;4.90;;;2.65;;
65759;SDS011;52496;51.082;5.066;2022-10-16T04:08:32;7.47;;;3.10;;
65759;SDS011;52496;51.082;5.066;2022-10-16T04:11:04;7.30;;;3.05;;
65759;SDS011;52496;51.082;5.066;2022-10-16T04:13:35;15.77;;;3.25;;
65759;SDS011;52496;51.082;5.066;2022-10-16T04:16:05;9.32;;;3.03;;
65759;SDS011;52496;51.082;5.066;2022-10-16T04:18:36;8.10;;;2.97;;
65759;SDS011;52496;51.082;5.066;2022-10-16T04:21:07;7.40;;;2.80;;
65759;SDS011;52496;51.082;5.066;2022-10-16T04:23:38;7.70;;;3.10;;
65759;SDS011;52496;51.082;5.066;2022-10-16T04:26:09;6.10;;;2.80;;
65759;SDS011;52496;51.082;5.066;2022-10-16T04:28:40;6.38;;;2.65;;
65759;SDS011;52496;51.082;5.066;2022-10-16T04:31:10;6.00;;;2.70;;
65759;SDS011;52496;51.082;5.066;2022-10-16T04:33:44;4.68;;;2.42;;
65759;SDS011;52496;51.082;5.066;2022-10-16T04:36:14;6.65;;;2.65;;
65759;SDS011;52496;51.082;5.066;2022-10-16T04:38:45;5.28;;;2.60;;
65759;SDS011;52496;51.082;5.066;2022-10-16T04:41:15;6.97;;;3.10;;
65759;SDS011;52496;51.082;5.066;2022-10-16T04:43:49;6.75;;;2.70;;
65759;SDS011;52496;51.082;5.066;2022-10-16T04:46:19;10.45;;;3.78;;
65759;SDS011;52496;51.082;5.066;2022-10-16T04:48:50;4.95;;;2.97;;
65759;SDS011;52496;51.082;5.066;2022-10-16T04:51:21;5.50;;;2.60;;
65759;SDS011;52496;51.082;5.066;2022-10-16T04:53:51;4.68;;;2.65;;
65759;SDS011;52496;51.082;5.066;2022-10-16T04:56:22;6.63;;;2.88;;
65759;SDS011;52496;51.082;5.066;2022-10-16T04:58:52;8.02;;;3.13;;
65759;SDS011;52496;51.082;5.066;2022-10-16T05:01:24;5.57;;;3.00;;
65759;SDS011;52496;51.082;5.066;2022-10-16T05:03:54;5.88;;;3.00;;
65759;SDS011;52496;51.082;5.066;2022-10-16T05:06:25;5.50;;;2.97;;
65759;SDS011;52496;51.082;5.066;2022-10-16T05:08:55;8.43;;;3.67;;
65759;SDS011;52496;51.082;5.066;2022-10-16T05:11:26;5.60;;;2.92;;
65759;SDS011;52496;51.082;5.066;2022-10-16T05:13:57;6.60;;;3.03;;
65759;SDS011;52496;51.082;5.066;2022-10-16T05:16:27;5.65;;;2.78;;
65759;SDS011;52496;51.082;5.066;2022-10-16T05:18:58;5.05;;;2.75;;
65759;SDS011;52496;51.082;5.066;2022-10-16T05:21:28;7.10;;;2.72;;
65759;SDS011;52496;51.082;5.066;2022-10-16T05:23:59;6.55;;;2.97;;
65759;SDS011;52496;51.082;5.066;2022-10-16T05:26:29;5.22;;;2.83;;
65759;SDS011;52496;51.082;5.066;2022-10-16T05:29:00;5.00;;;2.97;;
65759;SDS011;52496;51.082;5.066;2022-10-16T05:31:31;5.13;;;3.05;;
65759;SDS011;52496;51.082;5.066;2022-10-16T05:34:02;6.50;;;2.85;;
65759;SDS011;52496;51.082;5.066;2022-10-16T05:36:32;5.15;;;3.03;;
65759;SDS011;52496;51.082;5.066;2022-10-16T05:39:03;5.85;;;3.30;;
65759;SDS011;52496;51.082;5.066;2022-10-16T05:41:36;4.65;;;2.50;;
65759;SDS011;52496;51.082;5.066;2022-10-16T05:44:07;6.60;;;3.15;;
65759;SDS011;52496;51.082;5.066;2022-10-16T05:46:37;6.70;;;2.67;;
65759;SDS011;52496;51.082;5.066;2022-10-16T05:49:08;6.03;;;3.20;;
65759;SDS011;52496;51.082;5.066;2022-10-16T05:51:38;6.68;;;2.80;;
65759;SDS011;52496;51.082;5.066;2022-10-16T05:54:09;5.68;;;3.10;;
65759;SDS011;52496;51.082;5.066;2022-10-16T05:56:40;8.02;;;3.35;;
65759;SDS011;52496;51.082;5.066;2022-10-16T05:59:10;7.40;;;2.95;;
65759;SDS011;52496;51.082;5.066;2022-10-16T06:01:41;9.02;;;3.10;;
65759;SDS011;52496;51.082;5.066;2022-10-16T06:04:11;8.98;;;2.95;;
65759;SDS011;52496;51.082;5.066;2022-10-16T06:06:42;7.57;;;2.70;;
65759;SDS011;52496;51.082;5.066;2022-10-16T06:09:13;5.32;;;3.08;;
65759;SDS011;52496;51.082;5.066;2022-10-16T06:11:46;7.72;;;3.47;;
65759;SDS011;52496;51.082;5.066;2022-10-16T06:14:17;8.43;;;3.97;;
65759;SDS011;52496;51.082;5.066;2022-10-16T06:16:47;7.75;;;3.55;;
65759;SDS011;52496;51.082;5.066;2022-10-16T06:19:18;8.20;;;3.22;;
65759;SDS011;52496;51.082;5.066;2022-10-16T06:21:48;5.40;;;3.05;;
65759;SDS011;52496;51.082;5.066;2022-10-16T06:24:19;7.88;;;3.15;;
65759;SDS011;52496;51.082;5.066;2022-10-16T06:26:49;7.75;;;3.20;;
65759;SDS011;52496;51.082;5.066;2022-10-16T06:29:20;7.70;;;3.53;;
65759;SDS011;52496;51.082;5.066;2022-10-16T06:31:51;6.20;;;3.50;;
65759;SDS011;52496;51.082;5.066;2022-10-16T06:34:23;8.52;;;3.53;;
65759;SDS011;52496;51.082;5.066;2022-10-16T06:36:53;7.82;;;3.10;;
65759;SDS011;52496;51.082;5.066;2022-10-16T06:39:24;6.43;;;3.13;;
65759;SDS011;52496;51.082;5.066;2022-10-16T06:41:54;6.07;;;3.33;;
65759;SDS011;52496;51.082;5.066;2022-10-16T06:44:25;10.30;;;3.60;;
65759;SDS011;52496;51.082;5.066;2022-10-16T06:46:55;6.60;;;3.00;;
65759;SDS011;52496;51.082;5.066;2022-10-16T06:49:26;5.97;;;3.25;;
65759;SDS011;52496;51.082;5.066;2022-10-16T06:51:58;8.18;;;3.67;;
65759;SDS011;52496;51.082;5.066;2022-10-16T06:54:29;6.18;;;3.10;;
65759;SDS011;52496;51.082;5.066;2022-10-16T06:56:59;7.68;;;3.35;;
65759;SDS011;52496;51.082;5.066;2022-10-16T06:59:31;8.38;;;3.50;;
65759;SDS011;52496;51.082;5.066;2022-10-16T07:02:02;9.95;;;4.35;;
65759;SDS011;52496;51.082;5.066;2022-10-16T07:04:32;7.05;;;3.53;;
65759;SDS011;52496;51.082;5.066;2022-10-16T07:07:03;6.22;;;3.28;;
65759;SDS011;52496;51.082;5.066;2022-10-16T07:09:33;8.90;;;3.90;;
65759;SDS011;52496;51.082;5.066;2022-10-16T07:12:04;6.25;;;3.53;;
65759;SDS011;52496;51.082;5.066;2022-10-16T07:14:34;8.27;;;3.33;;
65759;SDS011;52496;51.082;5.066;2022-10-16T07:17:05;5.68;;;3.55;;
65759;SDS011;52496;51.082;5.066;2022-10-16T07:19:36;6.97;;;3.35;;
65759;SDS011;52496;51.082;5.066;2022-10-16T07:22:07;8.15;;;3.33;;
65759;SDS011;52496;51.082;5.066;2022-10-16T07:24:37;6.85;;;3.55;;
65759;SDS011;52496;51.082;5.066;2022-10-16T07:27:08;5.75;;;3.33;;
65759;SDS011;52496;51.082;5.066;2022-10-16T07:29:38;6.80;;;2.95;;
65759;SDS011;52496;51.082;5.066;2022-10-16T07:32:09;8.85;;;3.50;;
65759;SDS011;52496;51.082;5.066;2022-10-16T07:34:39;8.73;;;3.28;;
65759;SDS011;52496;51.082;5.066;2022-10-16T07:37:10;7.53;;;3.22;;
65759;SDS011;52496;51.082;5.066;2022-10-16T07:39:40;5.68;;;3.28;;
65759;SDS011;52496;51.082;5.066;2022-10-16T07:42:11;5.25;;;2.60;;
65759;SDS011;52496;51.082;5.066;2022-10-16T07:44:41;6.78;;;2.97;;
65759;SDS011;52496;51.082;5.066;2022-10-16T07:47:12;7.25;;;2.97;;
65759;SDS011;52496;51.082;5.066;2022-10-16T07:49:42;7.20;;;2.97;;
65759;SDS011;52496;51.082;5.066;2022-10-16T07:52:13;4.35;;;2.50;;
65759;SDS011;52496;51.082;5.066;2022-10-16T07:54:43;4.40;;;2.45;;
65759;SDS011;52496;51.082;5.066;2022-10-16T07:57:14;9.95;;;2.83;;
65759;SDS011;52496;51.082;5.066;2022-10-16T07:59:49;6.00;;;2.50;;
65759;SDS011;52496;51.082;5.066;2022-10-16T08:02:19;7.03;;;2.40;;
65759;SDS011;52496;51.082;5.066;2022-10-16T08:04:50;5.00;;;2.63;;
65759;SDS011;52496;51.082;5.066;2022-10-16T08:07:20;5.45;;;2.15;;
65759;SDS011;52496;51.082;5.066;2022-10-16T08:09:51;8.35;;;2.53;;
65759;SDS011;52496;51.082;5.066;2022-10-16T08:12:22;6.43;;;2.40;;
65759;SDS011;52496;51.082;5.066;2022-10-16T08:14:53;7.13;;;2.65;;
65759;SDS011;52496;51.082;5.066;2022-10-16T08:17:23;4.00;;;2.28;;
65759;SDS011;52496;51.082;5.066;2022-10-16T08:19:53;5.70;;;2.22;;
65759;SDS011;52496;51.082;5.066;2022-10-16T08:22:24;5.57;;;2.25;;
65759;SDS011;52496;51.082;5.066;2022-10-16T08:24:54;5.20;;;1.92;;
65759;SDS011;52496;51.082;5.066;2022-10-16T08:27:25;4.45;;;2.47;;
65759;SDS011;52496;51.082;5.066;2022-10-16T08:30:00;6.05;;;2.50;;
65759;SDS011;52496;51.082;5.066;2022-10-16T08:32:31;8.00;;;2.15;;
65759;SDS011;52496;51.082;5.066;2022-10-16T08:35:01;7.65;;;2.40;;
65759;SDS011;52496;51.082;5.066;2022-10-16T08:37:32;5.07;;;2.00;;
65759;SDS011;52496;51.082;5.066;2022-10-16T08:40:04;4.28;;;1.80;;
65759;SDS011;52496;51.082;5.066;2022-10-16T08:51:26;12.98;;;3.05;;
65759;SDS011;52496;51.082;5.066;2022-10-16T08:54:06;5.25;;;2.00;;
65759;SDS011;52496;51.082;5.066;2022-10-16T08:56:45;3.95;;;2.08;;
65759;SDS011;52496;51.082;5.066;2022-10-16T08:59:16;7.20;;;2.10;;
65759;SDS011;52496;51.082;5.066;2022-10-16T09:01:49;5.93;;;1.95;;
65759;SDS011;52496;51.082;5.066;2022-10-16T09:07:38;5.90;;;1.80;;
65759;SDS011;52496;51.082;5.066;2022-10-16T09:21:40;4.93;;;2.17;;
65759;SDS011;52496;51.082;5.066;2022-10-16T09:24:15;7.47;;;1.92;;
65759;SDS011;52496;51.082;5.066;2022-10-16T09:26:49;4.25;;;1.83;;
65759;SDS011;52496;51.082;5.066;2022-10-16T09:29:20;8.73;;;2.33;;
65759;SDS011;52496;51.082;5.066;2022-10-16T09:31:53;4.18;;;1.80;;
65759;SDS011;52496;51.082;5.066;2022-10-16T09:34:30;5.75;;;1.88;;
65759;SDS011;52496;51.082;5.066;2022-10-16T09:37:04;3.78;;;1.70;;
65759;SDS011;52496;51.082;5.066;2022-10-16T09:39:46;10.30;;;2.17;;
65759;SDS011;52496;51.082;5.066;2022-10-16T09:42:22;4.45;;;1.80;;
65759;SDS011;52496;51.082;5.066;2022-10-16T09:44:58;6.22;;;1.77;;
65759;SDS011;52496;51.082;5.066;2022-10-16T09:47:29;6.28;;;1.90;;
65759;SDS011;52496;51.082;5.066;2022-10-16T09:50:05;3.58;;;1.65;;
65759;SDS011;52496;51.082;5.066;2022-10-16T09:53:04;5.35;;;1.63;;
65759;SDS011;52496;51.082;5.066;2022-10-16T09:55:51;4.55;;;1.80;;
65759;SDS011;52496;51.082;5.066;2022-10-16T09:58:23;3.17;;;1.75;;
65759;SDS011;52496;51.082;5.066;2022-10-16T10:00:54;4.85;;;1.75;;
65759;SDS011;52496;51.082;5.066;2022-10-16T10:06:15;4.15;;;1.70;;
65759;SDS011;52496;51.082;5.066;2022-10-16T10:11:59;8.17;;;1.70;;
65759;SDS011;52496;51.082;5.066;2022-10-16T10:14:36;6.00;;;1.55;;
65759;SDS011;52496;51.082;5.066;2022-10-16T10:19:51;7.75;;;2.22;;
65759;SDS011;52496;51.082;5.066;2022-10-16T10:22:43;6.60;;;1.92;;
65759;SDS011;52496;51.082;5.066;2022-10-16T10:38:59;3.22;;;1.67;;
65759;SDS011;52496;51.082;5.066;2022-10-16T10:45:00;6.22;;;1.95;;
65759;SDS011;52496;51.082;5.066;2022-10-16T10:50:36;7.07;;;2.03;;
65759;SDS011;52496;51.082;5.066;2022-10-16T10:56:16;4.35;;;1.55;;
65759;SDS011;52496;51.082;5.066;2022-10-16T11:01:58;3.58;;;1.70;;
65759;SDS011;52496;51.082;5.066;2022-10-16T11:04:49;9.35;;;1.80;;
65759;SDS011;52496;51.082;5.066;2022-10-16T11:07:28;5.07;;;1.52;;
65759;SDS011;52496;51.082;5.066;2022-10-16T11:10:05;4.63;;;2.00;;
65759;SDS011;52496;51.082;5.066;2022-10-16T11:12:55;5.63;;;1.80;;
65759;SDS011;52496;51.082;5.066;2022-10-16T11:15:31;5.18;;;1.77;;
65759;SDS011;52496;51.082;5.066;2022-10-16T11:20:40;4.72;;;1.52;;
65759;SDS011;52496;51.082;5.066;2022-10-16T11:23:16;4.43;;;1.50;;
65759;SDS011;52496;51.082;5.066;2022-10-16T11:25:54;3.78;;;1.50;;
65759;SDS011;52496;51.082;5.066;2022-10-16T11:28:31;4.45;;;1.40;;
65759;SDS011;52496;51.082;5.066;2022-10-16T11:31:08;4.25;;;1.70;;
65759;SDS011;52496;51.082;5.066;2022-10-16T11:33:51;5.57;;;1.90;;
65759;SDS011;52496;51.082;5.066;2022-10-16T11:39:21;4.93;;;1.50;;
65759;SDS011;52496;51.082;5.066;2022-10-16T11:42:14;5.10;;;1.52;;
65759;SDS011;52496;51.082;5.066;2022-10-16T11:44:51;8.40;;;1.80;;
65759;SDS011;52496;51.082;5.066;2022-10-16T11:47:34;8.10;;;1.80;;
65759;SDS011;52496;51.082;5.066;2022-10-16T11:52:51;5.82;;;1.52;;
65759;SDS011;52496;51.082;5.066;2022-10-16T11:55:32;2.38;;;1.10;;
65759;SDS011;52496;51.082;5.066;2022-10-16T12:07:07;3.63;;;1.55;;
65759;SDS011;52496;51.082;5.066;2022-10-16T12:09:41;2.95;;;1.60;;
65759;SDS011;52496;51.082;5.066;2022-10-16T12:15:29;4.90;;;1.85;;
65759;SDS011;52496;51.082;5.066;2022-10-16T12:18:01;8.82;;;1.52;;
65759;SDS011;52496;51.082;5.066;2022-10-16T12:20:32;3.97;;;1.75;;
65759;SDS011;52496;51.082;5.066;2022-10-16T12:23:05;2.72;;;1.33;;
65759;SDS011;52496;51.082;5.066;2022-10-16T12:25:38;3.67;;;1.50;;
65759;SDS011;52496;51.082;5.066;2022-10-16T12:28:20;6.28;;;1.35;;
65759;SDS011;52496;51.082;5.066;2022-10-16T12:30:53;10.55;;;1.88;;
65759;SDS011;52496;51.082;5.066;2022-10-16T12:33:27;6.25;;;1.48;;
65759;SDS011;52496;51.082;5.066;2022-10-16T12:36:00;4.18;;;1.45;;
65759;SDS011;52496;51.082;5.066;2022-10-16T12:38:48;4.97;;;1.60;;
65759;SDS011;52496;51.082;5.066;2022-10-16T12:41:28;5.88;;;1.60;;
65759;SDS011;52496;51.082;5.066;2022-10-16T12:44:00;2.43;;;1.40;;
65759;SDS011;52496;51.082;5.066;2022-10-16T12:46:35;3.45;;;1.60;;
65759;SDS011;52496;51.082;5.066;2022-10-16T12:51:42;5.88;;;1.33;;
65759;SDS011;52496;51.082;5.066;2022-10-16T12:54:34;10.30;;;2.00;;
65759;SDS011;52496;51.082;5.066;2022-10-16T13:12:09;3.45;;;1.23;;
65759;SDS011;52496;51.082;5.066;2022-10-16T13:20:23;4.53;;;1.70;;
65759;SDS011;52496;51.082;5.066;2022-10-16T13:23:34;6.32;;;1.83;;
65759;SDS011;52496;51.082;5.066;2022-10-16T13:28:59;4.57;;;2.00;;
65759;SDS011;52496;51.082;5.066;2022-10-16T13:31:31;6.47;;;1.75;;
65759;SDS011;52496;51.082;5.066;2022-10-16T13:34:03;5.75;;;1.92;;
65759;SDS011;52496;51.082;5.066;2022-10-16T13:36:44;4.68;;;1.92;;
65759;SDS011;52496;51.082;5.066;2022-10-16T13:39:26;4.97;;;1.63;;
65759;SDS011;52496;51.082;5.066;2022-10-16T13:42:00;5.40;;;1.60;;
65759;SDS011;52496;51.082;5.066;2022-10-16T13:44:37;8.95;;;1.40;;
65759;SDS011;52496;51.082;5.066;2022-10-16T13:47:23;4.53;;;1.60;;
65759;SDS011;52496;51.082;5.066;2022-10-16T13:50:05;3.85;;;1.63;;
65759;SDS011;52496;51.082;5.066;2022-10-16T13:52:41;6.13;;;1.70;;
65759;SDS011;52496;51.082;5.066;2022-10-16T13:55:15;6.35;;;1.42;;
65759;SDS011;52496;51.082;5.066;2022-10-16T13:57:48;3.17;;;1.92;;
65759;SDS011;52496;51.082;5.066;2022-10-16T14:00:22;7.95;;;1.67;;
65759;SDS011;52496;51.082;5.066;2022-10-16T14:02:58;3.53;;;1.52;;
65759;SDS011;52496;51.082;5.066;2022-10-16T14:05:33;1.58;;;1.25;;
65759;SDS011;52496;51.082;5.066;2022-10-16T14:08:04;4.22;;;1.92;;
65759;SDS011;52496;51.082;5.066;2022-10-16T14:10:35;4.65;;;2.45;;
65759;SDS011;52496;51.082;5.066;2022-10-16T14:13:29;5.45;;;1.50;;
65759;SDS011;52496;51.082;5.066;2022-10-16T14:16:05;5.10;;;2.20;;
65759;SDS011;52496;51.082;5.066;2022-10-16T14:18:38;5.47;;;2.20;;
65759;SDS011;52496;51.082;5.066;2022-10-16T14:21:14;7.25;;;1.75;;
65759;SDS011;52496;51.082;5.066;2022-10-16T14:23:46;4.07;;;1.88;;
65759;SDS011;52496;51.082;5.066;2022-10-16T14:26:19;6.88;;;1.83;;
65759;SDS011;52496;51.082;5.066;2022-10-16T14:31:56;4.68;;;1.85;;
65759;SDS011;52496;51.082;5.066;2022-10-16T14:34:34;4.70;;;1.60;;
65759;SDS011;52496;51.082;5.066;2022-10-16T14:37:15;3.67;;;1.75;;
65759;SDS011;52496;51.082;5.066;2022-10-16T14:39:53;3.10;;;1.75;;
65759;SDS011;52496;51.082;5.066;2022-10-16T14:42:25;4.65;;;1.40;;
65759;SDS011;52496;51.082;5.066;2022-10-16T14:44:55;3.22;;;1.70;;
65759;SDS011;52496;51.082;5.066;2022-10-16T14:47:26;4.78;;;1.85;;
65759;SDS011;52496;51.082;5.066;2022-10-16T14:49:57;4.40;;;1.60;;
65759;SDS011;52496;51.082;5.066;2022-10-16T14:52:29;4.32;;;2.08;;
65759;SDS011;52496;51.082;5.066;2022-10-16T14:55:00;6.35;;;1.83;;
65759;SDS011;52496;51.082;5.066;2022-10-16T14:57:31;6.43;;;1.83;;
65759;SDS011;52496;51.082;5.066;2022-10-16T15:00:10;3.72;;;1.67;;
65759;SDS011;52496;51.082;5.066;2022-10-16T15:02:46;5.70;;;1.80;;
65759;SDS011;52496;51.082;5.066;2022-10-16T15:05:20;6.00;;;1.80;;
65759;SDS011;52496;51.082;5.066;2022-10-16T15:07:55;4.13;;;2.00;;
65759;SDS011;52496;51.082;5.066;2022-10-16T15:10:27;5.57;;;2.00;;
65759;SDS011;52496;51.082;5.066;2022-10-16T15:12:58;6.22;;;1.98;;
65759;SDS011;52496;51.082;5.066;2022-10-16T15:15:37;4.13;;;1.90;;
65759;SDS011;52496;51.082;5.066;2022-10-16T15:18:14;5.80;;;1.63;;
65759;SDS011;52496;51.082;5.066;2022-10-16T15:20:50;6.50;;;2.10;;
65759;SDS011;52496;51.082;5.066;2022-10-16T15:23:21;4.47;;;1.70;;
65759;SDS011;52496;51.082;5.066;2022-10-16T15:25:53;6.43;;;1.83;;
65759;SDS011;52496;51.082;5.066;2022-10-16T15:28:25;6.00;;;2.55;;
65759;SDS011;52496;51.082;5.066;2022-10-16T15:30:56;4.60;;;2.13;;
65759;SDS011;52496;51.082;5.066;2022-10-16T15:33:27;5.30;;;1.83;;
65759;SDS011;52496;51.082;5.066;2022-10-16T15:36:02;5.63;;;2.25;;
65759;SDS011;52496;51.082;5.066;2022-10-16T15:38:33;5.75;;;2.20;;
65759;SDS011;52496;51.082;5.066;2022-10-16T15:41:04;4.75;;;1.88;;
65759;SDS011;52496;51.082;5.066;2022-10-16T15:43:34;8.38;;;2.50;;
65759;SDS011;52496;51.082;5.066;2022-10-16T15:46:06;7.05;;;2.20;;
65759;SDS011;52496;51.082;5.066;2022-10-16T15:48:39;8.13;;;2.38;;
65759;SDS011;52496;51.082;5.066;2022-10-16T15:51:10;4.15;;;1.95;;
65759;SDS011;52496;51.082;5.066;2022-10-16T15:53:41;5.10;;;2.05;;
65759;SDS011;52496;51.082;5.066;2022-10-16T15:56:12;3.90;;;1.85;;
65759;SDS011;52496;51.082;5.066;2022-10-16T15:58:43;6.43;;;2.30;;
65759;SDS011;52496;51.082;5.066;2022-10-16T16:01:14;4.03;;;1.70;;
65759;SDS011;52496;51.082;5.066;2022-10-16T16:03:44;3.97;;;1.90;;
65759;SDS011;52496;51.082;5.066;2022-10-16T16:06:15;7.55;;;2.20;;
65759;SDS011;52496;51.082;5.066;2022-10-16T16:08:45;4.70;;;2.25;;
65759;SDS011;52496;51.082;5.066;2022-10-16T16:11:16;5.53;;;2.60;;
65759;SDS011;52496;51.082;5.066;2022-10-16T16:13:47;7.97;;;2.90;;
65759;SDS011;52496;51.082;5.066;2022-10-16T16:16:18;6.07;;;2.70;;
65759;SDS011;52496;51.082;5.066;2022-10-16T16:18:52;4.30;;;2.40;;
65759;SDS011;52496;51.082;5.066;2022-10-16T16:21:22;4.85;;;2.10;;
65759;SDS011;52496;51.082;5.066;2022-10-16T16:23:53;6.40;;;2.42;;
65759;SDS011;52496;51.082;5.066;2022-10-16T16:26:27;3.45;;;2.20;;
65759;SDS011;52496;51.082;5.066;2022-10-16T16:29:03;5.05;;;1.92;;
65759;SDS011;52496;51.082;5.066;2022-10-16T16:31:34;7.10;;;2.40;;
65759;SDS011;52496;51.082;5.066;2022-10-16T16:34:05;4.13;;;2.35;;
65759;SDS011;52496;51.082;5.066;2022-10-16T16:36:36;6.28;;;2.42;;
65759;SDS011;52496;51.082;5.066;2022-10-16T16:39:07;5.93;;;2.80;;
65759;SDS011;52496;51.082;5.066;2022-10-16T16:41:37;11.88;;;3.67;;
65759;SDS011;52496;51.082;5.066;2022-10-16T16:44:08;7.63;;;3.35;;
65759;SDS011;52496;51.082;5.066;2022-10-16T16:46:41;7.78;;;3.20;;
65759;SDS011;52496;51.082;5.066;2022-10-16T16:49:13;8.63;;;3.20;;
65759;SDS011;52496;51.082;5.066;2022-10-16T16:51:44;7.57;;;3.78;;
65759;SDS011;52496;51.082;5.066;2022-10-16T16:54:14;7.80;;;3.20;;
65759;SDS011;52496;51.082;5.066;2022-10-16T16:56:45;9.65;;;3.55;;
65759;SDS011;52496;51.082;5.066;2022-10-16T16:59:18;6.70;;;2.60;;
65759;SDS011;52496;51.082;5.066;2022-10-16T17:01:50;18.63;;;3.05;;
65759;SDS011;52496;51.082;5.066;2022-10-16T17:04:21;6.15;;;2.65;;
65759;SDS011;52496;51.082;5.066;2022-10-16T17:06:54;7.03;;;3.05;;
65759;SDS011;52496;51.082;5.066;2022-10-16T17:09:25;6.78;;;3.45;;
65759;SDS011;52496;51.082;5.066;2022-10-16T17:11:56;6.72;;;3.50;;
65759;SDS011;52496;51.082;5.066;2022-10-16T17:14:26;9.57;;;4.43;;
65759;SDS011;52496;51.082;5.066;2022-10-16T17:16:56;9.82;;;4.60;;
65759;SDS011;52496;51.082;5.066;2022-10-16T17:19:27;10.82;;;4.47;;
65759;SDS011;52496;51.082;5.066;2022-10-16T17:21:57;13.80;;;4.07;;
65759;SDS011;52496;51.082;5.066;2022-10-16T17:24:28;11.75;;;4.03;;
65759;SDS011;52496;51.082;5.066;2022-10-16T17:26:58;11.10;;;4.38;;
65759;SDS011;52496;51.082;5.066;2022-10-16T17:29:29;6.55;;;4.22;;
65759;SDS011;52496;51.082;5.066;2022-10-16T17:31:59;8.52;;;3.78;;
65759;SDS011;52496;51.082;5.066;2022-10-16T17:34:30;8.05;;;3.85;;
65759;SDS011;52496;51.082;5.066;2022-10-16T17:37:00;10.10;;;3.60;;
65759;SDS011;52496;51.082;5.066;2022-10-16T17:39:31;7.22;;;3.25;;